Impacts METAR Board
IDs:

KJFK - New York/Kennedy Int, NY, US

Updated at: 2300 UTC 02 Oct 2022
Potential Impact None Slight Moderate High
Time 02/11Z 02/12Z 02/13Z 02/14Z 02/15Z 02/16Z 02/17Z 02/18Z 02/19Z 02/20Z 02/21Z 02/22Z 02/23Z
Temp60 60 59 57 58 57 56 56 54 55 55 54 53
Dewpt43 48 51 54 53 52 51 49 49 46 43 38 38
Altim29.98 30.01 30.02 30.03 30.06 30.09 30.09 30.10 30.10 30.11 30.12 30.13 30.14
VIS10 10 10 5 10 5 8 6 3 9 10 10 10
CIG33 33 26 18 25 26 23 29 40 70 55 65 60
CoverOVCOVCOVCOVCOVCOVCOVCOVCOVCOVCOVCOVCOVC
FltCatVFRVFRMVFRMVFRMVFRMVFRMVFRMVFRMVFRVFRVFRVFRVFR
WX-------RA BR--HZ-RA-RARA-RA---RA-RA
WDir50505030404030403030203030
WSpd18 20 24 19 18 13 14 19 15 16 16 19 19
WGst24 31 31 27 26 -- 22 28 -- 24 24 30 27
Raw hourly METARs
KJFK 021051Z 05018G24KT 10SM BKN033 OVC042 16/06 A2998 RMK AO2 PK WND 06031/1008 SLP153 T01560061
KJFK 021151Z 05020G31KT 10SM OVC033 16/09 A3001 RMK AO2 PK WND 05033/1132 SLP162 60000 70030 T01560089 10156 20150 53010
KJFK 021251Z 05024G31KT 10SM OVC026 15/11 A3002 RMK AO2 PK WND 05033/1216 RAB17E38 SLP164 P0000 T01500106
KJFK 021351Z 03019G27KT 5SM -RA BR BKN018 OVC025 14/12 A3003 RMK AO2 PK WND 03031/1325 RAB04 SLP170 P0001 T01390122
KJFK 021451Z 04018G26KT 10SM OVC025 14/12 A3006 RMK AO2 PK WND 03029/1428 RAE02 SLP177 P0000 60001 T01440117 53016
KJFK 021551Z 04013KT 5SM HZ OVC026 14/11 A3009 RMK AO2 PK WND 04030/1504 RAB26E43 SLP187 P0000 T01390111
KJFK 021651Z 03014G22KT 8SM -RA BKN023 OVC032 13/11 A3009 RMK AO2 PK WND 03026/1619 RAB17 SLP190 P0001 T01330106
KJFK 021751Z 04019G28KT 6SM -RA BKN029 OVC035 13/09 A3010 RMK AO2 PK WND 02028/1745 SLP193 P0000 60002 T01330094 10156 20133 51016
KJFK 021851Z 03015KT 3SM RA FEW029 BKN040 OVC055 12/09 A3010 RMK AO2 PK WND 03028/1753 SLP193 P0008 T01220094
KJFK 021951Z 03016G24KT 9SM -RA FEW032 SCT045 OVC070 13/08 A3011 RMK AO2 PK WND 03030/1922 SLP195 P0005 T01280078
KJFK 022051Z 02016G24KT 10SM FEW034 BKN055 OVC075 13/06 A3012 RMK AO2 PK WND 04029/2027 RAE1956B26E44 SLP197 P0000 60013 T01280061 53004
KJFK 022151Z 03019G30KT 10SM -RA FEW042 BKN065 OVC080 12/03 A3013 RMK AO2 PK WND 03030/2146 RAB49 SLP201 P0000 T01220033
KJFK 022251Z 03019G27KT 10SM -RA FEW046 BKN060 OVC075 12/03 A3014 RMK AO2 PK WND 03030/2157 RAE00B31 SLP204 P0000 T01170033



Page loaded:  23:22 UTC  |   04:22 PM Pacific  |   05:22 PM Mountain  |   06:22 PM Central  |   07:22 PM Eastern

 

ADVISORIES

FORECASTS

FORECASTS

OBSERVATIONS

USER TOOLS

ABOUT US